Blue Mount, Mississippi
Current Conditions -  °F | °C
As of 3:15 AM on Monday 24 Nov 2014 (Local Time) from KCRX Reporting Station
Broken Clouds Broken Clouds  
Wind Chill: 63°   Ceiling: 2700
Heat Index: 63°   Visibility: 10mi
Dew Point: 54°   Wind: 18mph
Humidity: 72%   Direction: 210°SSW
Pressure: 29.54"   Gusts: 25mph
Location:  34.6645°N, 89.001°W
Report Text: KCRX 240915Z AUTO 21016G22KT 10SM BKN027 BKN037 17/12 A2954 RMK AO2
Loading
Personal Weather Stations






























Interactive Weather Map New forecast layout! Learn more

10-Day Weather Forecast

Advertisements
Track Severe Weather on mobile